Connexion S'enregistrer

Connexion à votre compte

Identifiant
Mot de passe
Maintenir la connexion active sur ce site

Créer un compte

Pour valider ce formulaire, vous devez remplir tous les champs.
Nom
Identifiant
Mot de passe
Répétez le mot de passe
Adresse e-mail
Répétez l'adresse e-mail

METAR/TAF de Chambéry

[source: ADDS]
METAR
LFLB 210900Z AUTO VRB01KT CAVOK 04/02 Q1030 NOSIG =
TAF LFLB 210500Z 2106/2206 VRB02KT CAVOK PROB40 TEMPO 2106/2108 2000 BCFG PROB40 TEMPO 2203/2206 4000 BR
TAF
TAF LFLB 210500Z 2106/2206 VRB02KT CAVOK PROB40 TEMPO 2106/2108 2000 BCFG PROB40 TEMPO 2203/2206 4000 BR =
SR / SS: 06:29 / 17:11 UTC (Lever/Coucher du soleil le 2019-02-21)

 

Webcam de l'Aéroclub - Parking Lima et SW (réactualisation : 5min)

Cliquer ici pour une animation sur les 3 dernières heures / Cliquer sur l'image pour l'agrandir dans une nouvelle fenêtre

 

Webcam de l'Aéroclub - Manche à air et WA (réactualisation : 5min)

Cliquer ici pour une animation sur les 3 dernières heures / Cliquer sur l'image pour l'agrandir dans une nouvelle fenêtre

 

JSN Boot template designed by JoomlaShine.com